createdAt,value
2017-10-06T00:01:04.521Z,1.83
2017-10-06T00:03:34.774Z,1.50
2017-10-06T00:06:04.643Z,1.57
2017-10-06T00:08:34.532Z,2.03
2017-10-06T00:11:04.404Z,1.87
2017-10-06T00:13:34.345Z,2.00
2017-10-06T00:16:04.651Z,1.27
2017-10-06T00:18:34.518Z,2.00
2017-10-06T00:21:04.747Z,1.47
2017-10-06T00:23:34.666Z,1.23
2017-10-06T00:26:04.574Z,1.63
2017-10-06T00:28:34.441Z,1.77
2017-10-06T00:31:04.337Z,1.50
2017-10-06T00:33:34.752Z,2.37
2017-10-06T00:36:04.670Z,1.70
2017-10-06T00:38:35.009Z,1.70
2017-10-06T00:41:04.877Z,1.70
2017-10-06T00:43:35.295Z,2.40
2017-10-06T00:46:05.168Z,1.90
2017-10-06T00:48:35.473Z,2.40
2017-10-06T00:51:05.348Z,1.57
2017-10-06T00:53:35.710Z,1.50
2017-10-06T00:56:05.588Z,1.73
2017-10-06T00:58:35.804Z,2.27
2017-10-06T01:01:05.657Z,2.13
2017-10-06T01:03:35.551Z,1.70
2017-10-06T01:06:05.406Z,1.90
2017-10-06T01:08:35.313Z,1.30
2017-10-06T01:11:05.637Z,1.50
2017-10-06T01:13:35.511Z,1.67
2017-10-06T01:16:05.861Z,2.10
2017-10-06T01:18:35.729Z,1.80
2017-10-06T01:21:05.590Z,1.50
2017-10-06T01:23:35.439Z,1.30
2017-10-06T01:26:05.285Z,1.37
2017-10-06T01:28:35.487Z,4.00
2017-10-06T01:31:05.352Z,1.30
2017-10-06T01:33:35.646Z,1.80
2017-10-06T01:36:05.535Z,1.80
2017-10-06T01:38:38.899Z,2.20
2017-10-06T01:41:16.633Z,1.77
2017-10-06T01:43:46.976Z,2.17
2017-10-06T01:46:16.868Z,1.43
2017-10-06T01:48:47.114Z,1.77
2017-10-06T01:51:17.006Z,2.00
2017-10-06T01:53:47.240Z,1.80
2017-10-06T01:56:17.098Z,2.10
2017-10-06T01:58:47.369Z,1.20
2017-10-06T02:01:17.225Z,1.80
2017-10-06T02:03:47.527Z,2.10
2017-10-06T02:06:17.378Z,1.90
2017-10-06T02:08:47.664Z,2.97
2017-10-06T02:11:17.507Z,1.83
2017-10-06T02:13:47.730Z,3.30
2017-10-06T02:16:17.621Z,2.10
2017-10-06T02:18:47.550Z,1.30
2017-10-06T02:21:17.428Z,1.67
2017-10-06T02:23:47.304Z,2.40
2017-10-06T02:26:17.677Z,1.60
2017-10-06T02:28:47.643Z,2.37
2017-10-06T02:31:17.954Z,1.80
2017-10-06T02:33:47.846Z,2.10
2017-10-06T02:36:18.237Z,1.40
2017-10-06T02:38:48.094Z,1.47
2017-10-06T02:41:18.406Z,1.50
2017-10-06T02:43:48.272Z,1.80
2017-10-06T02:46:18.706Z,2.57
2017-10-06T02:48:48.578Z,2.53
2017-10-06T02:51:18.854Z,1.83
2017-10-06T02:53:48.730Z,2.40
2017-10-06T02:56:18.661Z,1.43
2017-10-06T02:58:48.516Z,2.10
2017-10-06T03:01:18.388Z,2.30
2017-10-06T03:03:48.286Z,1.57
2017-10-06T03:06:18.158Z,1.40
2017-10-06T03:08:48.455Z,2.23
2017-10-06T03:11:18.340Z,1.53
2017-10-06T03:13:48.606Z,1.90
2017-10-06T03:16:18.545Z,1.20
2017-10-06T03:18:48.793Z,1.77
2017-10-06T03:21:18.678Z,1.83
2017-10-06T03:23:48.594Z,1.60
2017-10-06T03:26:18.473Z,1.47
2017-10-06T03:28:48.458Z,2.27
2017-10-06T03:31:18.715Z,1.40
2017-10-06T03:33:48.595Z,2.07
2017-10-06T03:36:18.828Z,1.77
2017-10-06T03:38:48.726Z,1.90
2017-10-06T03:41:18.684Z,4.00
2017-10-06T03:43:48.689Z,3.83
2017-10-06T03:46:18.583Z,2.43
2017-10-06T03:48:48.808Z,2.20
2017-10-06T03:51:18.704Z,2.23
2017-10-06T03:53:48.590Z,1.67
2017-10-06T03:56:18.471Z,1.80
2017-10-06T03:58:48.347Z,1.63
2017-10-06T04:01:18.570Z,1.37
2017-10-06T04:03:48.433Z,2.30
2017-10-06T04:06:18.818Z,1.70
2017-10-06T04:08:48.688Z,2.50
2017-10-06T04:11:19.058Z,2.67
2017-10-06T04:13:48.974Z,3.33
2017-10-06T04:16:19.278Z,3.43
2017-10-06T04:18:49.154Z,3.30
2017-10-06T04:21:19.474Z,2.90
2017-10-06T04:23:49.345Z,3.33
2017-10-06T04:26:19.648Z,2.23
2017-10-06T04:28:49.595Z,3.77
2017-10-06T04:31:19.896Z,3.00
2017-10-06T04:33:49.763Z,4.17
2017-10-06T04:36:19.651Z,2.43
2017-10-06T04:38:49.680Z,2.47
2017-10-06T04:41:19.548Z,3.10
2017-10-06T04:43:49.876Z,2.50
2017-10-06T04:46:19.786Z,3.10
2017-10-06T04:48:50.211Z,3.30
2017-10-06T04:51:20.146Z,2.97
2017-10-06T04:53:50.555Z,3.70
2017-10-06T04:56:20.487Z,3.20
2017-10-06T04:58:50.913Z,2.50
2017-10-06T05:01:20.871Z,4.23
2017-10-06T05:03:51.148Z,2.90
2017-10-06T05:06:21.012Z,3.20
2017-10-06T05:08:51.209Z,2.10
2017-10-06T05:11:21.111Z,3.10
2017-10-06T05:13:51.609Z,1.83
2017-10-06T05:16:21.485Z,2.07
2017-10-06T05:18:51.743Z,1.90
2017-10-06T05:21:21.659Z,1.63
2017-10-06T05:23:51.540Z,1.20
2017-10-06T05:26:21.423Z,1.93
2017-10-06T05:28:51.346Z,2.17
2017-10-06T05:31:21.606Z,2.03
2017-10-06T05:33:51.431Z,1.63
2017-10-06T05:36:21.638Z,1.87
2017-10-06T05:38:51.499Z,1.80
2017-10-06T05:41:21.790Z,1.60
2017-10-06T05:43:51.721Z,1.80
2017-10-06T05:46:21.616Z,2.00
2017-10-06T05:48:51.495Z,2.00
2017-10-06T05:51:21.368Z,1.67
2017-10-06T05:53:51.583Z,2.50
2017-10-06T05:56:21.457Z,1.60
2017-10-06T05:58:51.973Z,1.83
2017-10-06T06:01:21.902Z,1.97
2017-10-06T06:03:52.122Z,2.53
2017-10-06T06:06:22.035Z,2.30
2017-10-06T06:08:52.260Z,1.77
2017-10-06T06:11:22.166Z,1.50
2017-10-06T06:13:52.418Z,1.33
2017-10-06T06:16:22.289Z,1.40
2017-10-06T06:18:52.522Z,2.23
2017-10-06T06:21:22.384Z,2.00
2017-10-06T06:23:52.672Z,5.57
2017-10-06T06:26:22.566Z,3.77
2017-10-06T06:28:52.811Z,3.13
2017-10-06T06:31:22.858Z,2.80
2017-10-06T06:33:53.107Z,2.47
2017-10-06T06:36:23.000Z,3.13
2017-10-06T06:38:53.258Z,2.87
2017-10-06T06:41:23.134Z,2.50
2017-10-06T06:43:53.434Z,2.90
2017-10-06T06:46:23.318Z,1.93
2017-10-06T06:48:53.550Z,2.30
2017-10-06T06:51:26.755Z,2.63
2017-10-06T06:53:56.604Z,2.10
2017-10-06T06:56:26.576Z,2.53
2017-10-06T06:58:56.878Z,2.47
2017-10-06T07:01:26.738Z,3.10
2017-10-06T07:03:56.684Z,2.67
2017-10-06T07:06:26.567Z,3.00
2017-10-06T07:08:56.441Z,3.07
2017-10-06T07:11:26.650Z,3.03
2017-10-06T07:13:56.530Z,3.63
2017-10-06T07:16:26.686Z,2.73
2017-10-06T07:18:56.545Z,2.53
2017-10-06T07:21:26.769Z,2.37
2017-10-06T07:23:56.712Z,2.43
2017-10-06T07:26:26.602Z,3.10
2017-10-06T07:28:56.872Z,2.50
2017-10-06T07:31:26.734Z,2.33
2017-10-06T07:33:56.662Z,3.30
2017-10-06T07:36:26.521Z,2.77
2017-10-06T07:38:56.384Z,2.80
2017-10-06T07:41:26.267Z,3.97
2017-10-06T07:43:56.143Z,2.90
2017-10-06T07:46:26.364Z,3.93
2017-10-06T07:48:56.235Z,3.83
2017-10-06T07:51:26.098Z,3.13
2017-10-06T07:53:56.000Z,4.57
2017-10-06T07:56:26.271Z,4.10
2017-10-06T07:58:56.146Z,2.97
2017-10-06T08:01:26.486Z,2.87
2017-10-06T08:03:56.365Z,4.03
2017-10-06T08:06:26.541Z,4.10
2017-10-06T08:08:56.889Z,3.30
2017-10-06T08:11:27.931Z,4.17
2017-10-06T08:13:57.820Z,3.20
2017-10-06T08:16:28.247Z,2.70
2017-10-06T08:18:58.563Z,4.63
2017-10-06T08:21:31.451Z,2.70
2017-10-06T08:24:01.385Z,2.70
2017-10-06T08:26:31.656Z,4.20
2017-10-06T08:29:01.914Z,5.30
2017-10-06T08:31:32.866Z,3.77
2017-10-06T08:34:03.366Z,3.10
2017-10-06T08:36:33.737Z,3.20
2017-10-06T08:39:03.845Z,3.47
2017-10-06T08:41:34.120Z,3.37
2017-10-06T08:44:05.616Z,2.43
2017-10-06T08:46:35.915Z,3.97
2017-10-06T08:49:06.605Z,2.90
2017-10-06T08:51:37.289Z,4.00
2017-10-06T08:54:07.473Z,3.50
2017-10-06T08:56:38.091Z,3.00
2017-10-06T08:59:08.053Z,2.40
2017-10-06T09:01:38.078Z,2.43
2017-10-06T09:04:08.480Z,2.67
2017-10-06T09:06:38.558Z,3.87
2017-10-06T09:09:08.655Z,3.10
2017-10-06T09:11:39.327Z,2.40
2017-10-06T09:14:09.286Z,4.73
2017-10-06T09:16:40.169Z,4.10
2017-10-06T09:19:10.247Z,3.53
2017-10-06T09:21:40.213Z,4.43
2017-10-06T09:24:10.127Z,3.17
2017-10-06T09:26:40.322Z,3.00
2017-10-06T09:29:10.555Z,3.90
2017-10-06T09:31:40.709Z,3.60
2017-10-06T09:34:10.808Z,3.93
2017-10-06T09:36:41.340Z,3.70
2017-10-06T09:39:11.660Z,3.57
2017-10-06T09:41:41.582Z,5.77
2017-10-06T09:44:12.475Z,3.83
2017-10-06T09:46:44.190Z,3.43
2017-10-06T09:49:14.566Z,3.70
2017-10-06T09:51:45.225Z,3.40
2017-10-06T09:54:15.508Z,2.90
2017-10-06T09:56:45.885Z,3.67
2017-10-06T09:59:16.364Z,3.13
2017-10-06T10:01:48.744Z,3.73
2017-10-06T10:04:19.112Z,2.40
2017-10-06T10:06:49.687Z,3.93
2017-10-06T10:09:19.681Z,2.67
2017-10-06T10:11:50.307Z,3.60
2017-10-06T10:14:20.198Z,3.10
2017-10-06T10:16:51.379Z,2.33
2017-10-06T10:19:21.874Z,3.60
2017-10-06T10:21:52.597Z,3.70
2017-10-06T10:24:22.934Z,2.67
2017-10-06T10:26:53.523Z,3.50
2017-10-06T10:29:25.041Z,3.27
2017-10-06T10:31:55.633Z,2.70
2017-10-06T10:34:25.803Z,3.37
2017-10-06T10:36:56.762Z,3.73
2017-10-06T10:39:27.183Z,2.33
2017-10-06T10:41:57.705Z,3.10
2017-10-06T10:44:28.485Z,2.57
2017-10-06T10:46:58.809Z,2.77
2017-10-06T10:49:30.450Z,2.90
2017-10-06T10:52:00.453Z,2.70
2017-10-06T10:54:30.587Z,2.20
2017-10-06T10:57:00.721Z,2.37
2017-10-06T10:59:30.992Z,2.80
2017-10-06T11:02:01.802Z,3.07
2017-10-06T11:04:32.116Z,3.00
2017-10-06T11:07:02.763Z,1.87
2017-10-06T11:09:33.967Z,1.73
2017-10-06T11:12:05.468Z,1.50
2017-10-06T11:14:35.797Z,2.03
2017-10-06T11:17:07.262Z,2.80
2017-10-06T11:19:37.130Z,2.20
2017-10-06T11:22:06.995Z,2.13
2017-10-06T11:24:36.924Z,1.77
2017-10-06T11:27:06.851Z,2.40
2017-10-06T11:29:36.750Z,2.30
2017-10-06T11:32:06.636Z,1.97
2017-10-06T11:34:36.524Z,1.60
2017-10-06T11:37:06.395Z,1.60
2017-10-06T11:39:36.324Z,1.23
2017-10-06T11:42:06.282Z,2.20
2017-10-06T11:44:36.510Z,2.53
2017-10-06T11:47:06.474Z,1.90
2017-10-06T11:49:36.691Z,2.00
2017-10-06T11:52:06.561Z,1.20
2017-10-06T11:54:36.813Z,1.93
2017-10-06T11:57:06.699Z,1.30
2017-10-06T11:59:36.570Z,1.47
2017-10-06T12:02:06.449Z,1.57
2017-10-06T12:04:36.340Z,1.17
2017-10-06T12:07:06.500Z,2.00
2017-10-06T12:09:36.370Z,1.83
2017-10-06T12:12:06.260Z,1.60
2017-10-06T12:14:36.190Z,1.57
2017-10-06T12:17:06.526Z,1.20
2017-10-06T12:19:36.461Z,1.80
2017-10-06T12:22:06.762Z,1.43
2017-10-06T12:24:37.356Z,1.53
2017-10-06T12:27:07.600Z,2.10
2017-10-06T12:29:37.626Z,1.10
2017-10-06T12:32:07.844Z,1.37
2017-10-06T12:34:37.879Z,1.37
2017-10-06T12:37:08.171Z,1.23
2017-10-06T12:39:38.052Z,2.20
2017-10-06T12:42:08.373Z,1.33
2017-10-06T12:44:38.295Z,1.47
2017-10-06T12:47:08.447Z,1.50
2017-10-06T12:49:38.426Z,1.43
2017-10-06T12:52:08.830Z,2.23
2017-10-06T12:54:38.788Z,1.33
2017-10-06T12:57:09.120Z,2.70
2017-10-06T12:59:39.042Z,1.80
2017-10-06T13:02:08.922Z,1.70
2017-10-06T13:04:38.815Z,0.90
2017-10-06T13:07:08.820Z,2.13
2017-10-06T13:09:38.759Z,1.50
2017-10-06T13:12:08.691Z,1.83
2017-10-06T13:14:38.626Z,1.23
2017-10-06T13:17:08.644Z,1.60
2017-10-06T13:19:38.578Z,1.60
2017-10-06T13:22:08.558Z,1.70
2017-10-06T13:24:38.470Z,2.73
2017-10-06T13:27:08.465Z,1.70
2017-10-06T13:29:38.710Z,1.30
2017-10-06T13:32:08.599Z,1.80
2017-10-06T13:34:38.868Z,2.47
2017-10-06T13:37:08.735Z,1.73
2017-10-06T13:39:38.650Z,2.07
2017-10-06T13:42:08.610Z,1.77
2017-10-06T13:44:38.519Z,1.60
2017-10-06T13:47:08.461Z,1.83
2017-10-06T13:49:38.395Z,1.80
2017-10-06T13:52:08.568Z,2.27
2017-10-06T13:54:38.439Z,2.60
2017-10-06T13:57:08.354Z,1.40
2017-10-06T13:59:38.338Z,1.90
2017-10-06T14:02:08.295Z,1.40
2017-10-06T14:04:38.241Z,1.37
2017-10-06T14:07:08.482Z,1.90
2017-10-06T14:09:38.372Z,1.27
2017-10-06T14:12:08.579Z,1.60
2017-10-06T14:14:38.915Z,1.40
2017-10-06T14:17:09.160Z,2.47
2017-10-06T14:19:40.094Z,2.10
2017-10-06T14:22:10.270Z,1.40
2017-10-06T14:24:40.214Z,1.50
2017-10-06T14:27:10.174Z,1.07
2017-10-06T14:29:40.070Z,1.30
2017-10-06T14:32:09.982Z,1.00
2017-10-06T14:34:39.874Z,1.67
2017-10-06T14:37:10.533Z,1.20
2017-10-06T14:39:40.430Z,2.07
2017-10-06T14:42:10.310Z,1.10
2017-10-06T14:44:40.412Z,1.13
2017-10-06T14:47:10.440Z,1.13
2017-10-06T14:49:40.335Z,1.60
2017-10-06T14:52:11.160Z,1.77
2017-10-06T14:54:41.106Z,1.23
2017-10-06T14:57:11.440Z,1.10
2017-10-06T14:59:41.405Z,1.93
2017-10-06T15:02:11.290Z,1.00
2017-10-06T15:04:41.533Z,0.90
2017-10-06T15:07:11.515Z,0.80
2017-10-06T15:09:41.440Z,1.07
2017-10-06T15:12:11.685Z,1.93
2017-10-06T15:14:41.554Z,1.40
2017-10-06T15:17:11.489Z,1.20
2017-10-06T15:19:41.404Z,1.20
2017-10-06T15:22:11.629Z,1.10
2017-10-06T15:24:41.579Z,1.03
2017-10-06T15:27:11.827Z,1.67
2017-10-06T15:29:41.749Z,1.30
2017-10-06T15:32:11.654Z,0.87
2017-10-06T15:34:41.571Z,1.57
2017-10-06T15:37:11.443Z,1.80
2017-10-06T15:39:41.610Z,1.93
2017-10-06T15:42:11.529Z,1.93
2017-10-06T15:44:41.696Z,1.37
2017-10-06T15:47:11.641Z,1.43
2017-10-06T15:49:41.604Z,1.90
2017-10-06T15:52:11.483Z,1.80
2017-10-06T15:54:41.685Z,1.70
2017-10-06T15:57:11.577Z,1.53
2017-10-06T15:59:42.619Z,1.67
2017-10-06T16:02:12.545Z,1.30
2017-10-06T16:04:42.503Z,2.33
2017-10-06T16:07:12.375Z,1.93
2017-10-06T16:09:42.849Z,1.70
2017-10-06T16:12:12.776Z,1.40
2017-10-06T16:14:42.997Z,2.13
2017-10-06T16:17:12.877Z,1.40
2017-10-06T16:19:43.149Z,1.80
2017-10-06T16:22:13.051Z,1.70
2017-10-06T16:24:42.963Z,1.80
2017-10-06T16:27:12.861Z,2.27
2017-10-06T16:29:43.119Z,1.80
2017-10-06T16:32:13.049Z,1.63
2017-10-06T16:34:43.209Z,1.90
2017-10-06T16:37:24.616Z,2.60
2017-10-06T16:39:55.044Z,1.83
2017-10-06T16:42:24.962Z,2.00
2017-10-06T16:44:55.311Z,1.90
2017-10-06T16:47:25.235Z,1.63
2017-10-06T16:49:55.648Z,2.30
2017-10-06T16:52:25.658Z,2.50
2017-10-06T16:54:55.562Z,2.03
2017-10-06T16:57:25.465Z,1.73
2017-10-06T16:59:55.874Z,2.93
2017-10-06T17:02:25.769Z,2.20
2017-10-06T17:04:55.734Z,1.90
2017-10-06T17:07:25.762Z,2.70
2017-10-06T17:09:55.665Z,2.13
2017-10-06T17:12:25.550Z,2.30
2017-10-06T17:14:55.483Z,2.00
2017-10-06T17:17:25.765Z,1.90
2017-10-06T17:19:57.112Z,2.50
2017-10-06T17:22:27.036Z,3.27
2017-10-06T17:24:57.617Z,2.50
2017-10-06T17:27:27.569Z,2.63
2017-10-06T17:29:57.534Z,2.17
2017-10-06T17:32:27.802Z,1.80
2017-10-06T17:34:57.698Z,2.30
2017-10-06T17:37:27.635Z,2.23
2017-10-06T17:39:57.632Z,2.40
2017-10-06T17:42:27.531Z,2.20
2017-10-06T17:44:57.454Z,1.50
2017-10-06T17:47:27.494Z,2.00
2017-10-06T17:49:58.184Z,1.40
2017-10-06T17:52:28.093Z,2.10
2017-10-06T17:55:00.336Z,1.97
2017-10-06T17:57:30.327Z,1.90
2017-10-06T18:00:00.812Z,2.87
2017-10-06T18:02:30.686Z,2.20
2017-10-06T18:05:00.992Z,3.53
2017-10-06T18:07:30.884Z,3.40
2017-10-06T18:10:00.883Z,2.40
2017-10-06T18:12:30.875Z,2.20
2017-10-06T18:15:01.048Z,2.50
2017-10-06T18:17:30.978Z,3.23
2017-10-06T18:20:01.190Z,2.40
2017-10-06T18:22:31.117Z,2.07
2017-10-06T18:25:01.344Z,3.10
2017-10-06T18:27:31.303Z,2.57
2017-10-06T18:30:01.660Z,3.10
2017-10-06T18:32:31.616Z,3.00
2017-10-06T18:35:01.861Z,3.50
2017-10-06T18:37:31.741Z,3.90
2017-10-06T18:40:01.621Z,4.17
2017-10-06T18:42:31.495Z,2.43
2017-10-06T18:45:01.387Z,2.70
2017-10-06T18:47:31.715Z,2.70
2017-10-06T18:50:01.996Z,3.03
2017-10-06T18:52:32.170Z,3.80
2017-10-06T18:55:02.094Z,2.57
2017-10-06T18:57:33.272Z,3.00
2017-10-06T19:00:03.188Z,2.57
2017-10-06T19:02:33.135Z,3.90
2017-10-06T19:05:03.024Z,3.83
2017-10-06T19:07:33.446Z,2.80
2017-10-06T19:10:03.336Z,3.27
2017-10-06T19:12:33.582Z,3.23
2017-10-06T19:15:03.554Z,3.00
2017-10-06T19:17:33.482Z,2.53
2017-10-06T19:20:03.399Z,3.60
2017-10-06T19:22:33.608Z,3.03
2017-10-06T19:25:03.506Z,3.30
2017-10-06T19:27:33.488Z,4.30
2017-10-06T19:30:03.474Z,4.10
2017-10-06T19:32:33.378Z,3.43
2017-10-06T19:35:04.702Z,3.97
2017-10-06T19:37:34.700Z,3.20
2017-10-06T19:40:04.597Z,3.80
2017-10-06T19:42:34.535Z,4.27
2017-10-06T19:45:04.442Z,3.90
2017-10-06T19:47:34.368Z,3.33
2017-10-06T19:50:04.259Z,4.00
2017-10-06T19:52:35.372Z,4.63
2017-10-06T19:55:05.332Z,4.10
2017-10-06T19:57:35.653Z,4.33
2017-10-06T20:00:06.519Z,3.40
2017-10-06T20:02:36.932Z,5.27
2017-10-06T20:05:06.903Z,4.80
2017-10-06T20:07:37.140Z,5.37
2017-10-06T20:10:07.136Z,3.90
2017-10-06T20:12:37.523Z,4.90
2017-10-06T20:15:08.385Z,4.27
2017-10-06T20:17:38.650Z,5.43
2017-10-06T20:20:08.749Z,4.07
2017-10-06T20:22:39.219Z,4.20
2017-10-06T20:25:09.283Z,4.17
2017-10-06T20:27:41.055Z,4.67
2017-10-06T20:30:10.937Z,3.73
2017-10-06T20:32:42.991Z,3.30
2017-10-06T20:35:13.314Z,4.17
2017-10-06T20:37:43.504Z,3.77
2017-10-06T20:40:13.456Z,4.70
2017-10-06T20:42:43.912Z,2.87
2017-10-06T20:45:13.934Z,5.97
2017-10-06T20:47:44.329Z,3.83
2017-10-06T20:50:14.339Z,3.70
2017-10-06T20:52:44.545Z,4.93
2017-10-06T20:55:14.430Z,3.90
2017-10-06T20:57:44.578Z,3.87
2017-10-06T21:00:15.462Z,3.00
2017-10-06T21:02:45.751Z,4.43
2017-10-06T21:05:15.825Z,4.20
2017-10-06T21:07:48.465Z,3.40
2017-10-06T21:10:18.907Z,5.47
2017-10-06T21:12:49.553Z,4.73
2017-10-06T21:15:20.449Z,3.37
2017-10-06T21:17:50.647Z,3.23
2017-10-06T21:20:20.576Z,4.83
2017-10-06T21:22:50.813Z,3.20
2017-10-06T21:25:20.764Z,3.00
2017-10-06T21:27:51.090Z,4.30
2017-10-06T21:30:20.977Z,3.93
2017-10-06T21:32:51.440Z,5.50
2017-10-06T21:35:21.408Z,4.40
2017-10-06T21:37:54.390Z,2.83
2017-10-06T21:40:24.275Z,5.27
2017-10-06T21:42:54.472Z,5.27
2017-10-06T21:45:24.463Z,5.10
2017-10-06T21:47:54.404Z,6.93
2017-10-06T21:50:24.325Z,6.03
2017-10-06T21:52:54.565Z,5.70
2017-10-06T21:55:24.488Z,4.77
2017-10-06T21:57:54.735Z,3.30
2017-10-06T22:00:24.635Z,4.50
2017-10-06T22:02:56.374Z,5.10
2017-10-06T22:05:26.249Z,6.90
2017-10-06T22:07:56.232Z,5.07
2017-10-06T22:10:26.118Z,6.00
2017-10-06T22:12:56.064Z,5.77
2017-10-06T22:15:26.824Z,5.50
2017-10-06T22:17:56.712Z,7.00
2017-10-06T22:20:27.100Z,7.17
2017-10-06T22:22:56.985Z,8.73
2017-10-06T22:25:27.165Z,5.97
2017-10-06T22:27:57.032Z,5.50
2017-10-06T22:30:28.790Z,5.90
2017-10-06T22:32:58.676Z,6.47
2017-10-06T22:35:28.583Z,4.00
2017-10-06T22:37:58.513Z,3.77
2017-10-06T22:40:28.401Z,2.50
2017-10-06T22:42:58.664Z,5.70
2017-10-06T22:45:28.541Z,2.07
2017-10-06T22:47:58.830Z,3.13
2017-10-06T22:50:28.758Z,3.30
2017-10-06T22:52:58.666Z,3.13
2017-10-06T22:55:30.344Z,3.47
2017-10-06T22:58:00.277Z,3.50
2017-10-06T23:00:30.443Z,3.80
2017-10-06T23:03:00.327Z,3.60
2017-10-06T23:05:30.735Z,3.40
2017-10-06T23:08:00.643Z,3.30
2017-10-06T23:10:30.891Z,3.03
2017-10-06T23:13:00.756Z,3.77
2017-10-06T23:15:30.645Z,3.07
2017-10-06T23:18:00.523Z,2.80
2017-10-06T23:20:30.485Z,4.20
2017-10-06T23:23:00.767Z,2.50
2017-10-06T23:25:30.674Z,3.70
2017-10-06T23:28:00.850Z,3.00
2017-10-06T23:30:33.065Z,3.30
2017-10-06T23:33:03.307Z,2.47
2017-10-06T23:35:33.195Z,3.17
2017-10-06T23:38:03.486Z,2.90
2017-10-06T23:40:33.413Z,2.83
2017-10-06T23:43:03.658Z,3.70
2017-10-06T23:45:33.592Z,3.77
2017-10-06T23:48:05.278Z,2.70
2017-10-06T23:50:35.277Z,2.60
2017-10-06T23:53:05.303Z,3.60
2017-10-06T23:55:36.038Z,2.60
2017-10-06T23:58:05.949Z,2.53
